Time;durP1;ratioP1;P1;durP2;ratioP2;P2;SDS_P1;SDS_P2;PMS_P1;PMS_P2;Temp;Humidity;BMP_temperature;BMP_pressure;BME280_temperature;BME280_humidity;BME280_pressure;Samples;Min_cycle;Max_cycle;Signal;HPM_P1;HPM_P2
2021/01/02 00:02:04;;;;;;;30.63;17.52;;;5.00;57.00;;;;;;5072456;28;20082;-79
2021/01/02 00:04:50;;;;;;;30.80;17.20;;;5.00;57.00;;;;;;5069464;28;20431;-79
2021/01/02 00:07:41;;;;;;;32.80;18.10;;;5.00;57.10;;;;;;5063399;28;20113;-79
2021/01/02 00:10:11;;;;;;;32.40;17.27;;;5.00;57.20;;;;;;5054967;28;20067;-80
2021/01/02 00:13:07;;;;;;;31.38;17.33;;;5.00;57.20;;;;;;5056648;28;20036;-79
2021/01/02 00:15:56;;;;;;;35.35;18.73;;;5.00;57.30;;;;;;5024438;28;20036;-79
2021/01/02 00:18:34;;;;;;;32.80;17.63;;;5.00;57.20;;;;;;5053679;28;20397;-79
2021/01/02 00:21:16;;;;;;;32.63;18.50;;;4.90;57.20;;;;;;5053689;28;20029;-79
2021/01/02 00:24:03;;;;;;;39.40;20.00;;;4.90;57.20;;;;;;5070898;28;20096;-79
2021/01/02 00:26:46;;;;;;;35.63;19.15;;;4.90;57.20;;;;;;5072778;28;20115;-79
2021/01/02 00:29:23;;;;;;;37.15;21.08;;;4.90;57.30;;;;;;5074010;28;20388;-80
2021/01/02 00:32:47;;;;;;;34.92;18.25;;;4.90;57.30;;;;;;5073013;28;20021;-79
2021/01/02 00:35:19;;;;;;;37.05;19.65;;;4.80;57.30;;;;;;5071631;28;20107;-79
2021/01/02 00:37:53;;;;;;;39.53;21.10;;;4.90;57.40;;;;;;5071106;28;20028;-79
2021/01/02 00:40:20;;;;;;;29.37;15.90;;;4.90;57.50;;;;;;5056794;28;20040;-79
2021/01/02 00:42:49;;;;;;;39.83;20.58;;;4.90;57.60;;;;;;5051443;28;20029;-79
2021/01/02 00:45:26;;;;;;;37.38;18.35;;;4.90;57.50;;;;;;5058125;28;20020;-79
2021/01/02 00:47:53;;;;;;;30.73;16.15;;;4.90;57.40;;;;;;5054800;28;20028;-79
2021/01/02 00:50:22;;;;;;;39.63;20.92;;;4.90;57.60;;;;;;5071533;28;20040;-80
2021/01/02 00:53:13;;;;;;;41.85;21.95;;;5.00;57.50;;;;;;5071563;28;20078;-79
2021/01/02 00:55:59;;;;;;;39.63;20.38;;;4.90;57.30;;;;;;5054324;28;20035;-79
2021/01/02 00:58:28;;;;;;;44.20;23.17;;;4.90;57.30;;;;;;5054397;28;20034;-79
2021/01/02 01:01:06;;;;;;;40.42;21.23;;;4.90;57.20;;;;;;5071195;28;20070;-79
2021/01/02 01:03:34;;;;;;;44.65;21.45;;;4.90;57.30;;;;;;5071198;28;20480;-79
2021/01/02 01:06:03;;;;;;;39.95;21.15;;;4.90;57.30;;;;;;5068420;28;20036;-80
2021/01/02 01:08:33;;;;;;;42.58;21.35;;;4.90;57.40;;;;;;5066707;28;20090;-80
2021/01/02 01:11:08;;;;;;;41.92;21.60;;;4.90;57.50;;;;;;5053340;28;20021;-80
2021/01/02 01:13:35;;;;;;;42.72;21.60;;;4.90;57.40;;;;;;5052060;28;20017;-79
2021/01/02 01:16:01;;;;;;;34.70;18.40;;;4.90;57.50;;;;;;5051845;28;20029;-79
2021/01/02 01:19:04;;;;;;;34.25;17.73;;;4.90;57.60;;;;;;5053105;28;20025;-79
2021/01/02 01:21:39;;;;;;;35.47;18.08;;;4.90;57.70;;;;;;5068465;28;20027;-80
2021/01/02 01:24:50;;;;;;;30.55;15.95;;;5.00;57.80;;;;;;5052871;28;20545;-79
2021/01/02 01:27:21;;;;;;;36.45;19.05;;;5.00;57.70;;;;;;5041459;28;20078;-79
2021/01/02 01:29:47;;;;;;;40.55;20.02;;;5.10;57.50;;;;;;5053903;28;20036;-80
2021/01/02 01:32:19;;;;;;;33.97;17.48;;;5.10;57.30;;;;;;5068447;28;20382;-79
2021/01/02 01:34:46;;;;;;;34.38;18.27;;;5.10;57.20;;;;;;5072851;28;20029;-80
2021/01/02 01:37:19;;;;;;;34.90;16.63;;;5.10;57.30;;;;;;5068189;28;20158;-79
2021/01/02 01:39:52;;;;;;;30.83;16.48;;;5.10;57.30;;;;;;5052912;28;20021;-79
2021/01/02 01:42:20;;;;;;;28.35;15.48;;;5.10;57.40;;;;;;5052741;28;20370;-79
2021/01/02 01:45:06;;;;;;;33.35;18.25;;;5.10;57.40;;;;;;5051559;28;20040;-79
2021/01/02 01:47:39;;;;;;;32.17;16.98;;;5.10;57.30;;;;;;5052785;28;20035;-79
2021/01/02 01:50:21;;;;;;;37.22;18.23;;;5.10;57.20;;;;;;5052846;28;20028;-79
2021/01/02 01:53:12;;;;;;;30.33;16.48;;;5.10;57.20;;;;;;5052693;28;20052;-79
2021/01/02 01:56:09;;;;;;;33.83;16.98;;;5.20;57.20;;;;;;5052678;28;20055;-79
2021/01/02 01:58:54;;;;;;;34.60;17.15;;;5.20;57.30;;;;;;5052352;28;20041;-79
2021/01/02 02:01:25;;;;;;;33.05;16.65;;;5.20;57.20;;;;;;5051389;28;20211;-79
2021/01/02 02:04:52;;;;;;;32.78;16.67;;;5.20;57.10;;;;;;5052610;28;20512;-79
2021/01/02 02:07:20;;;;;;;31.63;16.75;;;5.20;57.70;;;;;;5052145;28;20025;-79
2021/01/02 02:09:59;;;;;;;32.40;17.38;;;5.30;57.20;;;;;;5052706;28;20100;-80
2021/01/02 02:12:32;;;;;;;30.50;16.67;;;5.20;57.10;;;;;;5052766;28;20021;-80
2021/01/02 02:15:01;;;;;;;36.10;18.80;;;5.30;57.10;;;;;;5062153;28;20044;-79
2021/01/02 02:17:48;;;;;;;32.90;17.00;;;5.30;57.00;;;;;;5072497;28;20032;-79
2021/01/02 02:20:28;;;;;;;26.65;14.40;;;5.30;57.00;;;;;;5075529;28;20120;-79
2021/01/02 02:23:08;;;;;;;28.58;14.93;;;5.30;57.10;;;;;;5092396;28;20127;-79
2021/01/02 02:26:08;;;;;;;30.08;15.35;;;5.30;57.10;;;;;;5093088;28;20020;-79
2021/01/02 02:28:52;;;;;;;32.67;16.42;;;5.30;57.10;;;;;;5091973;28;20032;-79
2021/01/02 02:31:20;;;;;;;31.73;16.40;;;5.40;57.00;;;;;;5084558;28;20539;-79
2021/01/02 02:34:00;;;;;;;30.02;15.75;;;5.40;57.00;;;;;;5067378;28;20040;-79
2021/01/02 02:36:29;;;;;;;32.60;16.83;;;5.40;56.90;;;;;;5051973;28;20036;-79
2021/01/02 02:38:59;;;;;;;33.70;17.85;;;5.40;56.90;;;;;;5052894;28;20029;-79
2021/01/02 02:41:31;;;;;;;30.25;15.85;;;5.40;56.80;;;;;;5072231;28;20102;-79
2021/01/02 02:44:02;;;;;;;31.85;16.73;;;5.50;56.80;;;;;;5074448;28;20031;-79
2021/01/02 02:46:32;;;;;;;31.20;16.00;;;5.40;56.70;;;;;;5076376;28;20031;-79
2021/01/02 02:49:01;;;;;;;27.40;14.32;;;5.50;56.80;;;;;;5076165;28;20104;-79
2021/01/02 02:51:31;;;;;;;30.95;16.40;;;5.50;56.90;;;;;;5074723;28;20027;-79
2021/01/02 02:53:58;;;;;;;32.85;16.80;;;5.50;56.70;;;;;;5075984;28;20027;-79
2021/01/02 02:56:23;;;;;;;28.80;15.68;;;5.50;56.70;;;;;;5059596;28;20033;-79
2021/01/02 02:58:52;;;;;;;28.48;14.85;;;5.50;56.70;;;;;;5055884;28;20382;-79
2021/01/02 03:01:18;;;;;;;31.92;16.95;;;5.50;56.70;;;;;;5054570;28;20470;-79
2021/01/02 03:03:44;;;;;;;29.58;14.80;;;5.50;56.60;;;;;;5054530;28;20140;-79
2021/01/02 03:06:10;;;;;;;29.00;14.90;;;5.60;56.60;;;;;;5055684;28;20108;-79
2021/01/02 03:08:36;;;;;;;27.02;14.30;;;5.60;56.60;;;;;;5055731;28;20028;-79
2021/01/02 03:11:02;;;;;;;31.10;16.40;;;5.60;56.60;;;;;;5056338;28;20552;-79
2021/01/02 03:13:39;;;;;;;30.90;16.25;;;5.60;56.30;;;;;;5055655;28;20025;-79
2021/01/02 03:16:05;;;;;;;28.63;15.75;;;5.60;56.30;;;;;;5055567;28;20017;-79
2021/01/02 03:18:30;;;;;;;31.58;16.00;;;5.60;56.30;;;;;;5055557;28;20025;-79
2021/01/02 03:20:56;;;;;;;30.73;16.05;;;5.60;56.30;;;;;;5055675;28;20033;-78
2021/01/02 03:23:22;;;;;;;27.38;14.75;;;5.60;56.30;;;;;;5055648;28;20052;-79
2021/01/02 03:25:47;;;;;;;28.60;14.18;;;5.60;56.30;;;;;;5055630;28;20432;-79
2021/01/02 03:28:13;;;;;;;27.88;15.00;;;5.60;56.30;;;;;;5055372;28;20033;-79
2021/01/02 03:30:39;;;;;;;27.55;14.38;;;5.60;56.30;;;;;;5055209;28;20017;-79
2021/01/02 03:33:05;;;;;;;31.98;16.73;;;5.70;56.40;;;;;;5055168;28;20036;-79
2021/01/02 03:35:32;;;;;;;27.05;13.93;;;5.70;56.30;;;;;;5055201;28;20470;-80
2021/01/02 03:37:58;;;;;;;29.63;15.27;;;5.70;56.30;;;;;;5055110;28;20013;-79
2021/01/02 03:40:24;;;;;;;32.13;17.20;;;5.70;56.30;;;;;;5055549;28;20167;-79
2021/01/02 03:42:50;;;;;;;37.72;18.73;;;5.70;56.30;;;;;;5053725;28;20413;-77
2021/01/02 03:45:16;;;;;;;36.90;19.20;;;5.70;56.20;;;;;;5055053;28;20496;-79
2021/01/02 03:47:46;;;;;;;34.35;18.73;;;5.70;56.20;;;;;;5055052;28;20044;-79
2021/01/02 03:50:13;;;;;;;34.45;17.67;;;5.70;56.30;;;;;;5055010;28;20028;-79
2021/01/02 03:52:40;;;;;;;44.08;22.00;;;5.70;56.40;;;;;;5055227;28;20021;-79
2021/01/02 03:55:08;;;;;;;38.83;20.20;;;5.70;56.30;;;;;;5054742;28;20032;-79
2021/01/02 03:57:34;;;;;;;44.30;21.70;;;5.70;56.30;;;;;;5055097;28;20039;-79
2021/01/02 03:59:59;;;;;;;50.30;24.30;;;5.70;56.30;;;;;;5055066;28;20088;-79
2021/01/02 04:02:26;;;;;;;44.80;22.00;;;5.70;56.20;;;;;;5053564;28;20152;-79
2021/01/02 04:04:52;;;;;;;42.80;22.20;;;5.70;56.30;;;;;;5053184;28;20036;-79
2021/01/02 04:07:18;;;;;;;42.13;20.80;;;5.70;56.40;;;;;;5054591;28;20025;-79
2021/01/02 04:09:44;;;;;;;49.65;23.17;;;5.70;56.30;;;;;;5054649;28;20025;-80
2021/01/02 04:12:10;;;;;;;45.38;21.80;;;5.70;56.30;;;;;;5054704;28;20025;-80
2021/01/02 04:14:36;;;;;;;45.85;22.23;;;5.70;56.30;;;;;;5054438;28;20028;-78
2021/01/02 04:17:03;;;;;;;41.65;20.95;;;5.70;56.40;;;;;;5053256;28;20033;-78
2021/01/02 04:19:32;;;;;;;38.67;19.40;;;5.70;56.40;;;;;;5054185;28;20082;-79
2021/01/02 04:21:58;;;;;;;46.70;23.48;;;5.70;56.30;;;;;;5054398;28;20174;-78
2021/01/02 04:24:24;;;;;;;46.63;23.38;;;5.70;56.20;;;;;;5054215;28;20556;-79
2021/01/02 04:26:50;;;;;;;38.90;19.20;;;5.70;56.30;;;;;;5069657;28;20036;-79
2021/01/02 04:29:15;;;;;;;47.38;22.45;;;5.70;56.30;;;;;;5054172;28;20021;-79
2021/01/02 04:31:41;;;;;;;43.03;22.60;;;5.70;56.30;;;;;;5056760;28;20029;-80
2021/01/02 04:34:09;;;;;;;42.95;20.50;;;5.70;56.30;;;;;;5053079;28;20021;-79
2021/01/02 04:36:36;;;;;;;39.55;21.42;;;5.70;56.30;;;;;;5052838;28;20109;-78
2021/01/02 04:39:04;;;;;;;50.10;23.55;;;5.60;56.30;;;;;;5054160;28;20033;-78
2021/01/02 04:41:31;;;;;;;47.92;24.25;;;5.70;56.30;;;;;;5053639;28;20025;-78
2021/01/02 04:43:58;;;;;;;51.90;25.92;;;5.60;56.20;;;;;;5053976;28;20021;-79
2021/01/02 04:46:25;;;;;;;42.65;21.85;;;5.60;56.20;;;;;;5053826;28;20053;-79
2021/01/02 04:48:53;;;;;;;45.50;23.45;;;5.60;56.30;;;;;;5053975;28;20057;-79
2021/01/02 04:51:19;;;;;;;46.47;23.77;;;5.60;56.30;;;;;;5053745;28;20013;-79
2021/01/02 04:53:45;;;;;;;46.17;23.55;;;5.60;56.20;;;;;;5053535;28;20029;-79
2021/01/02 04:56:12;;;;;;;42.05;20.13;;;5.60;56.30;;;;;;5052286;28;20056;-79
2021/01/02 04:58:41;;;;;;;48.75;23.20;;;5.60;56.30;;;;;;5053520;28;20068;-79
2021/01/02 05:01:09;;;;;;;50.85;25.98;;;5.70;56.40;;;;;;5052591;28;20029;-79
2021/01/02 05:03:35;;;;;;;48.65;23.67;;;5.70;56.30;;;;;;5053344;28;20426;-79
2021/01/02 05:06:04;;;;;;;47.60;24.10;;;5.70;56.30;;;;;;5052816;28;20478;-79
2021/01/02 05:08:30;;;;;;;40.25;19.48;;;5.70;56.40;;;;;;5053531;28;20513;-80
2021/01/02 05:10:58;;;;;;;46.10;22.42;;;5.70;56.40;;;;;;5053575;28;20021;-79
2021/01/02 05:13:31;;;;;;;49.40;25.83;;;5.70;56.40;;;;;;5053352;28;20044;-79
2021/01/02 05:16:35;;;;;;;55.47;27.85;;;5.70;56.20;;;;;;5053367;28;20025;-80
2021/01/02 05:19:06;;;;;;;49.03;23.88;;;5.70;56.00;;;;;;5053499;28;20021;-79
2021/01/02 05:21:33;;;;;;;49.00;24.20;;;5.70;56.00;;;;;;5064093;28;20033;-79
2021/01/02 05:24:09;;;;;;;51.85;24.00;;;5.70;56.00;;;;;;5054908;28;20045;-80
2021/01/02 05:26:40;;;;;;;43.15;21.52;;;5.70;56.00;;;;;;5054700;28;20029;-80
2021/01/02 05:29:10;;;;;;;43.63;21.70;;;5.70;56.10;;;;;;5056188;28;20021;-79
2021/01/02 05:31:39;;;;;;;47.67;23.83;;;5.70;56.00;;;;;;5055997;28;20025;-79
2021/01/02 05:34:08;;;;;;;52.83;25.67;;;5.70;55.90;;;;;;5055614;28;20532;-79
2021/01/02 05:36:34;;;;;;;49.08;22.85;;;5.70;55.80;;;;;;5053209;28;20432;-79
2021/01/02 05:39:00;;;;;;;46.58;23.40;;;5.70;55.80;;;;;;5053438;28;20108;-79
2021/01/02 05:41:27;;;;;;;45.60;22.52;;;5.70;55.80;;;;;;5052889;28;20394;-79
2021/01/02 05:44:10;;;;;;;49.53;25.05;;;5.70;55.90;;;;;;5053002;28;20025;-79
2021/01/02 05:46:50;;;;;;;44.22;21.77;;;5.70;55.70;;;;;;5052899;28;20029;-79
2021/01/02 05:49:37;;;;;;;50.97;25.13;;;5.70;55.80;;;;;;5052831;28;20067;-79
2021/01/02 05:52:06;;;;;;;45.22;22.77;;;5.80;55.70;;;;;;5052747;28;20031;-79
2021/01/02 05:54:33;;;;;;;51.35;23.90;;;5.70;55.60;;;;;;5051607;28;20064;-79
2021/01/02 05:57:03;;;;;;;46.47;24.02;;;5.70;55.60;;;;;;5052652;28;20530;-79
2021/01/02 05:59:37;;;;;;;47.60;22.33;;;5.70;55.50;;;;;;5051507;28;20061;-79
2021/01/02 06:02:31;;;;;;;42.72;22.63;;;5.70;55.60;;;;;;5060637;28;20055;-79
2021/01/02 06:05:03;;;;;;;45.83;22.52;;;5.70;55.60;;;;;;5072245;28;20041;-79
2021/01/02 06:07:33;;;;;;;41.97;21.85;;;5.70;55.70;;;;;;5073581;28;20103;-79
2021/01/02 06:10:00;;;;;;;43.75;23.52;;;5.70;55.70;;;;;;5073730;28;20060;-79
2021/01/02 06:12:35;;;;;;;51.58;26.02;;;5.70;55.70;;;;;;5073367;28;20466;-79
2021/01/02 06:15:04;;;;;;;44.95;23.77;;;5.70;55.40;;;;;;5062610;28;20029;-79
2021/01/02 06:17:38;;;;;;;47.53;22.67;;;5.70;55.50;;;;;;5054319;28;20032;-79
2021/01/02 06:20:12;;;;;;;45.20;23.58;;;5.70;55.50;;;;;;5057384;28;20051;-78
2021/01/02 06:22:41;;;;;;;53.08;25.83;;;5.70;55.50;;;;;;5072619;28;20045;-79
2021/01/02 06:25:08;;;;;;;50.00;24.38;;;5.70;55.40;;;;;;5056069;28;20029;-79
2021/01/02 06:27:42;;;;;;;50.88;25.80;;;5.70;55.40;;;;;;5055926;28;20029;-80
2021/01/02 06:30:09;;;;;;;44.25;22.17;;;5.70;55.30;;;;;;5057340;28;20017;-78
2021/01/02 06:32:34;;;;;;;46.60;22.45;;;5.70;55.40;;;;;;5059390;28;20501;-79
2021/01/02 06:35:09;;;;;;;57.50;28.23;;;5.70;55.40;;;;;;5056808;28;20079;-78
2021/01/02 06:37:50;;;;;;;61.05;29.52;;;5.70;55.20;;;;;;5055062;28;20124;-79
2021/01/02 06:40:37;;;;;;;54.88;26.08;;;5.70;55.00;;;;;;5060365;28;20078;-79
2021/01/02 06:43:21;;;;;;;54.22;27.35;;;5.70;55.10;;;;;;5054617;28;20104;-79
2021/01/02 06:45:49;;;;;;;47.88;23.42;;;5.70;55.20;;;;;;5054315;28;20112;-79
2021/01/02 06:48:23;;;;;;;49.00;24.73;;;5.70;55.40;;;;;;5056331;28;20029;-79
2021/01/02 06:50:49;;;;;;;44.88;22.05;;;5.70;55.30;;;;;;5055641;28;20025;-78
2021/01/02 06:53:22;;;;;;;51.42;24.35;;;5.70;55.40;;;;;;5055555;28;20124;-78
2021/01/02 06:56:07;;;;;;;48.80;23.02;;;5.70;56.00;;;;;;5055475;28;20390;-78
2021/01/02 06:58:43;;;;;;;47.45;23.90;;;5.70;55.20;;;;;;5055534;28;20087;-79
2021/01/02 07:01:29;;;;;;;50.58;25.13;;;5.70;55.20;;;;;;5056605;28;20132;-79
2021/01/02 07:03:56;;;;;;;48.50;23.00;;;5.70;55.00;;;;;;5056142;28;20442;-78
2021/01/02 07:06:22;;;;;;;46.17;22.35;;;5.70;55.00;;;;;;5056824;28;20033;-79
2021/01/02 07:08:59;;;;;;;53.50;25.67;;;5.70;55.10;;;;;;5056621;28;20497;-78
2021/01/02 07:11:42;;;;;;;53.47;25.95;;;5.60;55.00;;;;;;5057049;28;20462;-79
2021/01/02 07:14:08;;;;;;;48.15;24.38;;;5.60;55.00;;;;;;5056864;28;20017;-79
2021/01/02 07:16:45;;;;;;;53.00;24.63;;;5.70;55.00;;;;;;5056367;28;20025;-79
2021/01/02 07:19:29;;;;;;;48.50;23.90;;;5.60;54.80;;;;;;5055287;28;20060;-79
2021/01/02 07:22:00;;;;;;;44.30;22.30;;;5.60;54.60;;;;;;5055057;28;20033;-79
2021/01/02 07:24:36;;;;;;;38.42;20.67;;;5.60;54.70;;;;;;5056084;28;20116;-79
2021/01/02 07:27:05;;;;;;;43.65;22.05;;;5.60;54.80;;;;;;5056130;28;20094;-79
2021/01/02 07:29:34;;;;;;;47.47;23.15;;;5.60;54.70;;;;;;5055639;28;20119;-79
2021/01/02 07:32:07;;;;;;;38.95;19.75;;;5.50;54.50;;;;;;5056086;28;20021;-79
2021/01/02 07:34:34;;;;;;;41.90;21.55;;;5.50;54.40;;;;;;5056248;28;20083;-79
2021/01/02 07:37:08;;;;;;;41.92;20.42;;;5.60;54.50;;;;;;5057380;28;20032;-79
2021/01/02 07:39:34;;;;;;;;;;;5.50;54.50;;;;;;5056418;28;20021;-78
2021/01/02 07:42:05;;;;;;;39.20;19.67;;;5.50;54.90;;;;;;5055862;28;19904;-79
2021/01/02 07:44:31;;;;;;;41.55;20.02;;;5.60;54.80;;;;;;5054599;28;20087;-79
2021/01/02 07:46:57;;;;;;;40.28;19.35;;;5.60;54.90;;;;;;5055646;28;20025;-79
2021/01/02 07:49:23;;;;;;;33.08;17.13;;;5.60;55.00;;;;;;5054488;28;20028;-78
2021/01/02 07:51:49;;;;;;;33.63;18.52;;;5.60;55.00;;;;;;5055749;28;20013;-78
2021/01/02 07:54:38;;;;;;;36.20;18.65;;;5.70;54.90;;;;;;5056059;28;20021;-79
2021/01/02 07:57:08;;;;;;;43.80;21.73;;;5.70;54.80;;;;;;5055717;28;20021;-78
2021/01/02 07:59:37;;;;;;;64.13;30.70;;;5.70;54.80;;;;;;5054185;28;20104;-78
2021/01/02 08:02:08;;;;;;;68.68;33.00;;;5.80;54.70;;;;;;5055366;28;20029;-78
2021/01/02 08:04:35;;;;;;;55.13;26.73;;;5.80;54.50;;;;;;5055360;28;20024;-79
2021/01/02 08:07:04;;;;;;;39.40;21.23;;;5.80;54.40;;;;;;5053871;28;20382;-79
2021/01/02 08:09:32;;;;;;;35.65;18.73;;;5.90;54.40;;;;;;5055612;28;20057;-79
2021/01/02 08:12:01;;;;;;;36.08;17.75;;;5.90;54.30;;;;;;5054012;28;20021;-79
2021/01/02 08:14:30;;;;;;;37.25;17.33;;;5.90;54.20;;;;;;5053835;28;20108;-79
2021/01/02 08:17:12;;;;;;;33.72;17.90;;;5.90;54.20;;;;;;5062242;28;20028;-79
2021/01/02 08:19:46;;;;;;;32.00;16.35;;;6.00;54.10;;;;;;5074744;28;20032;-79
2021/01/02 08:22:13;;;;;;;30.88;17.27;;;6.00;54.20;;;;;;5075283;28;20085;-79
2021/01/02 08:24:42;;;;;;;29.98;16.70;;;6.00;54.20;;;;;;5075666;28;20484;-79
2021/01/02 08:27:08;;;;;;;31.50;16.80;;;6.00;54.00;;;;;;5074833;28;20021;-79
2021/01/02 08:29:34;;;;;;;29.02;15.63;;;6.10;53.90;;;;;;5071421;28;20107;-79
2021/01/02 08:32:06;;;;;;;32.42;16.75;;;6.10;53.80;;;;;;5066154;28;20032;-80
2021/01/02 08:34:34;;;;;;;29.63;16.50;;;6.10;53.60;;;;;;5053503;28;20025;-80
2021/01/02 08:37:02;;;;;;;37.20;18.00;;;6.10;53.60;;;;;;5054843;28;20020;-80
2021/01/02 08:39:29;;;;;;;37.30;17.88;;;6.10;53.60;;;;;;5054464;28;20071;-80
2021/01/02 08:41:56;;;;;;;35.53;16.80;;;6.20;53.70;;;;;;5054706;28;20039;-80
2021/01/02 08:44:36;;;;;;;37.53;18.23;;;6.20;53.30;;;;;;5073328;28;20109;-80
2021/01/02 08:47:05;;;;;;;56.53;20.55;;;6.20;53.20;;;;;;5073895;28;20021;-80
2021/01/02 08:49:37;;;;;;;41.47;18.27;;;6.20;53.20;;;;;;5074729;28;20025;-80
2021/01/02 08:52:35;;;;;;;34.85;17.75;;;6.20;52.70;;;;;;5073537;28;20070;-80
2021/01/02 08:55:17;;;;;;;29.55;15.07;;;6.10;52.70;;;;;;5072568;28;20032;-80
2021/01/02 08:57:45;;;;;;;29.40;15.27;;;6.10;52.90;;;;;;5064047;28;20119;-80
2021/01/02 09:00:20;;;;;;;36.45;15.30;;;6.20;53.20;;;;;;5052414;28;20021;-81
2021/01/02 09:03:05;;;;;;;30.50;14.98;;;6.20;52.90;;;;;;5052521;28;20033;-80
2021/01/02 09:05:39;;;;;;;31.13;14.80;;;6.20;52.70;;;;;;5052509;28;20207;-80
2021/01/02 09:08:10;;;;;;;41.65;16.90;;;6.20;52.90;;;;;;5052599;28;20107;-80
2021/01/02 09:10:43;;;;;;;34.83;15.20;;;6.30;52.80;;;;;;5052603;28;20068;-81
2021/01/02 09:13:10;;;;;;;29.27;13.95;;;6.30;52.80;;;;;;5052279;28;20032;-80
2021/01/02 09:15:40;;;;;;;27.02;12.45;;;6.30;52.80;;;;;;5035881;28;20032;-79
2021/01/02 09:18:05;;;;;;;24.60;12.48;;;6.30;52.90;;;;;;5035625;28;20167;-80
2021/01/02 09:20:31;;;;;;;38.53;14.90;;;6.40;53.10;;;;;;5052206;28;20104;-80
2021/01/02 09:22:57;;;;;;;28.13;11.52;;;6.50;53.10;;;;;;5051607;28;20041;-81
2021/01/02 09:25:33;;;;;;;35.25;13.13;;;6.50;53.00;;;;;;5035406;28;20543;-80
2021/01/02 09:28:15;;;;;;;26.30;13.23;;;6.60;52.70;;;;;;5035136;28;20083;-80
2021/01/02 09:30:43;;;;;;;29.77;12.88;;;6.60;52.30;;;;;;5043452;28;20049;-80
2021/01/02 09:33:09;;;;;;;36.10;14.48;;;6.70;52.30;;;;;;5053815;28;20017;-81
2021/01/02 09:35:36;;;;;;;34.47;16.33;;;6.70;52.30;;;;;;5054896;28;20449;-80
2021/01/02 09:38:03;;;;;;;37.88;19.50;;;6.70;52.40;;;;;;5054248;28;20029;-80
2021/01/02 09:40:29;;;;;;;30.00;14.65;;;6.80;52.40;;;;;;5073029;28;20032;-80
2021/01/02 09:42:55;;;;;;;27.13;14.10;;;6.80;52.50;;;;;;5073743;28;20430;-80
2021/01/02 09:45:21;;;;;;;26.27;13.95;;;6.90;52.50;;;;;;5059127;28;20051;-80
2021/01/02 09:47:47;;;;;;;43.67;19.50;;;6.90;52.20;;;;;;5053535;28;20064;-80
2021/01/02 09:50:13;;;;;;;35.10;13.88;;;7.00;52.10;;;;;;5053785;28;20021;-80
2021/01/02 09:52:39;;;;;;;33.95;14.48;;;7.10;51.80;;;;;;5052387;28;20082;-80
2021/01/02 09:55:05;;;;;;;29.38;12.77;;;7.10;51.70;;;;;;5052457;28;20386;-80
2021/01/02 09:57:31;;;;;;;38.80;14.35;;;7.10;51.50;;;;;;5053434;28;20029;-77
2021/01/02 09:59:57;;;;;;;25.33;12.68;;;7.00;51.30;;;;;;5053977;28;20035;-77
2021/01/02 10:02:22;;;;;;;37.97;13.60;;;7.00;51.40;;;;;;5053437;28;20025;-77
2021/01/02 10:04:49;;;;;;;26.27;12.85;;;7.10;51.60;;;;;;5052018;28;20047;-77
2021/01/02 10:07:17;;;;;;;27.90;13.73;;;7.10;51.70;;;;;;5053353;28;20028;-75
2021/01/02 10:09:46;;;;;;;37.25;13.52;;;7.10;51.60;;;;;;5055734;28;20377;-77
2021/01/02 10:12:14;;;;;;;25.60;13.43;;;7.10;51.50;;;;;;5062355;28;20540;-77
2021/01/02 10:14:39;;;;;;;40.63;13.85;;;7.00;51.30;;;;;;5060006;28;20492;-77
2021/01/02 10:17:05;;;;;;;30.20;13.90;;;7.00;51.30;;;;;;5059399;28;20036;-77
2021/01/02 10:19:32;;;;;;;32.70;14.80;;;7.00;51.30;;;;;;5072933;28;20024;-77
2021/01/02 10:22:03;;;;;;;42.97;16.38;;;7.00;51.40;;;;;;5072098;28;20052;-76
2021/01/02 10:24:29;;;;;;;29.30;14.82;;;7.00;51.50;;;;;;5056177;28;20052;-77
2021/01/02 10:26:55;;;;;;;27.17;11.77;;;7.00;51.70;;;;;;5051725;28;20094;-76
2021/01/02 10:29:21;;;;;;;23.40;12.93;;;7.00;51.70;;;;;;5054802;28;20105;-77
2021/01/02 10:31:47;;;;;;;26.13;12.70;;;6.90;51.50;;;;;;5073063;28;20056;-77
2021/01/02 10:34:14;;;;;;;23.70;11.40;;;6.90;51.60;;;;;;5072376;28;20020;-76
2021/01/02 10:36:39;;;;;;;21.35;10.85;;;7.00;51.90;;;;;;5057164;28;20100;-76
2021/01/02 10:39:06;;;;;;;25.75;12.48;;;7.00;51.70;;;;;;5053226;28;20056;-76
2021/01/02 10:41:31;;;;;;;43.00;13.45;;;7.00;51.60;;;;;;5059652;28;20068;-77
2021/01/02 10:43:57;;;;;;;26.23;13.63;;;7.00;51.40;;;;;;5061629;28;20065;-77
2021/01/02 10:46:23;;;;;;;24.83;12.77;;;7.00;51.30;;;;;;5072904;28;20087;-77
2021/01/02 10:48:49;;;;;;;30.92;14.00;;;7.00;51.40;;;;;;5058831;28;20487;-77
2021/01/02 10:51:17;;;;;;;28.63;15.57;;;7.00;51.30;;;;;;5051679;28;20029;-77
2021/01/02 10:53:43;;;;;;;27.88;14.02;;;7.00;51.40;;;;;;5053183;28;20473;-77
2021/01/02 10:56:14;;;;;;;47.63;16.38;;;6.90;51.30;;;;;;5058637;28;20109;-77
2021/01/02 10:58:40;;;;;;;34.05;13.52;;;6.90;51.20;;;;;;5071120;28;20031;-77
2021/01/02 11:01:06;;;;;;;21.88;11.95;;;6.80;50.90;;;;;;5072668;28;20017;-77
2021/01/02 11:03:36;;;;;;;25.88;12.82;;;6.80;50.90;;;;;;5070503;28;20056;-77
2021/01/02 11:06:12;;;;;;;22.55;11.73;;;6.80;51.00;;;;;;5076505;28;20043;-77
2021/01/02 11:08:38;;;;;;;31.23;13.80;;;6.80;51.00;;;;;;5066052;28;20021;-77
2021/01/02 11:11:04;;;;;;;24.75;11.82;;;6.80;51.10;;;;;;5055536;28;20035;-77
2021/01/02 11:13:30;;;;;;;32.75;12.52;;;6.80;51.10;;;;;;5055584;28;20355;-77
2021/01/02 11:15:56;;;;;;;25.25;11.65;;;6.90;51.20;;;;;;5055540;28;20033;-77
2021/01/02 11:18:22;;;;;;;20.35;11.60;;;6.90;51.30;;;;;;5055349;28;20544;-77
2021/01/02 11:20:48;;;;;;;30.00;12.15;;;6.90;51.20;;;;;;5056524;28;20362;-77
2021/01/02 11:23:21;;;;;;;25.17;11.77;;;7.00;51.20;;;;;;5064871;28;20115;-77
2021/01/02 11:25:47;;;;;;;21.08;10.88;;;7.00;50.80;;;;;;5055144;28;20021;-76
2021/01/02 11:28:13;;;;;;;20.50;10.50;;;7.00;50.90;;;;;;5067546;28;20032;-77
2021/01/02 11:30:39;;;;;;;35.00;13.90;;;7.00;50.90;;;;;;5056401;28;20493;-77
2021/01/02 11:33:06;;;;;;;29.38;11.52;;;7.00;50.90;;;;;;5073584;28;20029;-77
2021/01/02 11:35:32;;;;;;;22.42;10.95;;;7.00;51.10;;;;;;5072084;28;20082;-77
2021/01/02 11:37:58;;;;;;;28.48;11.15;;;7.00;51.30;;;;;;5063918;28;20036;-76
2021/01/02 11:40:24;;;;;;;19.35;10.35;;;7.00;51.30;;;;;;5056718;28;20025;-77
2021/01/02 11:42:50;;;;;;;24.40;10.93;;;7.10;51.40;;;;;;5060837;28;20070;-77
2021/01/02 11:45:22;;;;;;;24.02;11.88;;;7.10;51.40;;;;;;5058568;28;20033;-77
2021/01/02 11:47:48;;;;;;;22.70;10.93;;;7.10;51.40;;;;;;5059181;28;20543;-77
2021/01/02 11:50:14;;;;;;;20.58;10.88;;;7.20;51.40;;;;;;5066515;28;20382;-76
2021/01/02 11:52:40;;;;;;;24.58;11.52;;;7.20;51.40;;;;;;5065294;28;20028;-76
2021/01/02 11:55:07;;;;;;;27.70;12.20;;;7.30;51.40;;;;;;5069965;28;20017;-76
2021/01/02 11:57:33;;;;;;;24.73;12.40;;;7.30;51.40;;;;;;5064701;28;20490;-76
2021/01/02 11:59:59;;;;;;;22.58;11.25;;;7.40;51.30;;;;;;5054741;28;20082;-76
2021/01/02 12:02:25;;;;;;;23.95;11.98;;;7.40;51.30;;;;;;5054724;28;20445;-76
2021/01/02 12:04:51;;;;;;;22.83;11.40;;;7.40;51.20;;;;;;5062187;28;20103;-76
2021/01/02 12:07:16;;;;;;;25.85;12.45;;;7.40;51.30;;;;;;5073558;28;20020;-76
2021/01/02 12:09:44;;;;;;;26.00;12.18;;;7.50;51.40;;;;;;5064053;28;20104;-76
2021/01/02 12:12:10;;;;;;;21.38;11.27;;;7.50;51.20;;;;;;5056613;28;20055;-76
2021/01/02 12:14:36;;;;;;;21.38;10.70;;;7.50;51.40;;;;;;5068699;28;20046;-76
2021/01/02 12:17:07;;;;;;;20.65;9.98;;;7.60;51.60;;;;;;5053255;28;20493;-76
2021/01/02 12:19:33;;;;;;;18.02;9.63;;;7.60;51.40;;;;;;5053615;28;20131;-76
2021/01/02 12:22:04;;;;;;;19.40;8.70;;;7.70;51.50;;;;;;5053804;28;20028;-76
2021/01/02 12:24:30;;;;;;;24.10;9.82;;;7.70;51.30;;;;;;5054912;28;20044;-76
2021/01/02 12:26:59;;;;;;;20.35;9.15;;;7.80;51.30;;;;;;5060891;28;20043;-76
2021/01/02 12:29:27;;;;;;;26.67;12.45;;;7.80;51.40;;;;;;5058923;28;20428;-76
2021/01/02 12:31:55;;;;;;;23.88;12.30;;;7.80;51.10;;;;;;5081056;28;20025;-76
2021/01/02 12:34:24;;;;;;;23.90;11.95;;;7.90;50.80;;;;;;5055356;28;20093;-76
2021/01/02 12:36:51;;;;;;;19.42;10.95;;;7.80;50.60;;;;;;5070898;28;20052;-77
2021/01/02 12:39:23;;;;;;;21.50;10.25;;;7.80;50.30;;;;;;5054722;28;20098;-77
2021/01/02 12:41:50;;;;;;;27.05;10.65;;;7.80;50.60;;;;;;5053947;28;20112;-77
2021/01/02 12:44:18;;;;;;;20.70;10.10;;;7.80;50.70;;;;;;5056985;28;20029;-77
2021/01/02 12:46:47;;;;;;;21.45;10.20;;;7.80;50.80;;;;;;5057828;28;20047;-77
2021/01/02 12:49:17;;;;;;;20.85;10.90;;;7.80;50.60;;;;;;5053568;28;20025;-77
2021/01/02 12:51:43;;;;;;;16.98;9.90;;;7.80;50.80;;;;;;5061707;28;20480;-77
2021/01/02 12:54:10;;;;;;;26.83;11.90;;;7.90;50.90;;;;;;5062648;28;20031;-76
2021/01/02 12:56:42;;;;;;;18.35;10.65;;;7.90;50.80;;;;;;5060601;28;20077;-77
2021/01/02 12:59:08;;;;;;;19.63;10.75;;;7.90;50.40;;;;;;5074046;28;20049;-76